sensor_id;sensor_type;location;lat;lon;timestamp;temperature;humidity
11540;DHT22;5826;54.756;9.192;2023-07-31T00:00:05;16.00;99.90
11540;DHT22;5826;54.756;9.192;2023-07-31T00:02:30;16.00;99.90
11540;DHT22;5826;54.756;9.192;2023-07-31T00:04:56;16.00;99.90
11540;DHT22;5826;54.756;9.192;2023-07-31T00:07:22;16.00;99.90
11540;DHT22;5826;54.756;9.192;2023-07-31T00:09:47;16.00;99.90
11540;DHT22;5826;54.756;9.192;2023-07-31T00:12:13;16.00;99.90
11540;DHT22;5826;54.756;9.192;2023-07-31T00:14:38;16.00;99.90
11540;DHT22;5826;54.756;9.192;2023-07-31T00:17:04;16.00;99.90
11540;DHT22;5826;54.756;9.192;2023-07-31T00:19:30;16.00;99.90
11540;DHT22;5826;54.756;9.192;2023-07-31T00:21:55;16.00;99.90
11540;DHT22;5826;54.756;9.192;2023-07-31T00:24:20;16.00;99.90
11540;DHT22;5826;54.756;9.192;2023-07-31T00:26:46;16.00;99.90
11540;DHT22;5826;54.756;9.192;2023-07-31T00:29:11;16.10;99.90
11540;DHT22;5826;54.756;9.192;2023-07-31T00:31:37;16.10;99.90
11540;DHT22;5826;54.756;9.192;2023-07-31T00:34:02;16.10;99.90
11540;DHT22;5826;54.756;9.192;2023-07-31T00:36:28;16.10;99.90
11540;DHT22;5826;54.756;9.192;2023-07-31T00:38:53;16.10;99.90
11540;DHT22;5826;54.756;9.192;2023-07-31T00:41:19;16.10;99.90
11540;DHT22;5826;54.756;9.192;2023-07-31T00:43:44;16.10;99.90
11540;DHT22;5826;54.756;9.192;2023-07-31T00:46:10;16.10;99.90
11540;DHT22;5826;54.756;9.192;2023-07-31T00:48:36;16.10;99.90
11540;DHT22;5826;54.756;9.192;2023-07-31T00:51:02;16.10;99.90
11540;DHT22;5826;54.756;9.192;2023-07-31T00:53:28;16.10;99.90
11540;DHT22;5826;54.756;9.192;2023-07-31T00:55:54;16.10;99.90
11540;DHT22;5826;54.756;9.192;2023-07-31T00:58:19;16.10;99.90
11540;DHT22;5826;54.756;9.192;2023-07-31T01:00:45;16.10;99.90
11540;DHT22;5826;54.756;9.192;2023-07-31T01:03:11;16.10;99.90
11540;DHT22;5826;54.756;9.192;2023-07-31T01:05:51;16.10;99.90
11540;DHT22;5826;54.756;9.192;2023-07-31T01:08:32;16.10;99.90
11540;DHT22;5826;54.756;9.192;2023-07-31T01:11:07;16.10;99.90
11540;DHT22;5826;54.756;9.192;2023-07-31T01:13:36;16.10;99.90
11540;DHT22;5826;54.756;9.192;2023-07-31T01:16:01;16.10;99.90
11540;DHT22;5826;54.756;9.192;2023-07-31T01:18:27;16.10;99.90
11540;DHT22;5826;54.756;9.192;2023-07-31T01:21:03;16.10;99.90
11540;DHT22;5826;54.756;9.192;2023-07-31T01:31:16;16.00;99.90
11540;DHT22;5826;54.756;9.192;2023-07-31T01:33:43;16.00;99.90
11540;DHT22;5826;54.756;9.192;2023-07-31T01:36:09;16.00;99.90
11540;DHT22;5826;54.756;9.192;2023-07-31T01:38:35;16.00;99.90
11540;DHT22;5826;54.756;9.192;2023-07-31T01:41:00;16.00;99.90
11540;DHT22;5826;54.756;9.192;2023-07-31T01:43:26;16.00;99.90
11540;DHT22;5826;54.756;9.192;2023-07-31T01:45:51;16.00;99.90
11540;DHT22;5826;54.756;9.192;2023-07-31T01:48:16;16.00;99.90
11540;DHT22;5826;54.756;9.192;2023-07-31T01:50:42;16.10;99.90
11540;DHT22;5826;54.756;9.192;2023-07-31T01:53:07;16.00;99.90
11540;DHT22;5826;54.756;9.192;2023-07-31T01:55:33;16.00;99.90
11540;DHT22;5826;54.756;9.192;2023-07-31T01:57:58;16.00;99.90
11540;DHT22;5826;54.756;9.192;2023-07-31T02:00:24;16.00;99.90
11540;DHT22;5826;54.756;9.192;2023-07-31T02:02:49;16.00;99.90
11540;DHT22;5826;54.756;9.192;2023-07-31T02:05:15;16.00;99.90
11540;DHT22;5826;54.756;9.192;2023-07-31T02:07:40;16.10;99.90
11540;DHT22;5826;54.756;9.192;2023-07-31T02:10:06;16.10;99.90
11540;DHT22;5826;54.756;9.192;2023-07-31T02:12:32;16.10;99.90
11540;DHT22;5826;54.756;9.192;2023-07-31T02:14:58;16.10;99.90
11540;DHT22;5826;54.756;9.192;2023-07-31T02:17:24;16.10;99.90
11540;DHT22;5826;54.756;9.192;2023-07-31T02:19:49;16.10;99.90
11540;DHT22;5826;54.756;9.192;2023-07-31T02:22:15;16.10;99.90
11540;DHT22;5826;54.756;9.192;2023-07-31T02:24:40;16.20;99.90
11540;DHT22;5826;54.756;9.192;2023-07-31T02:27:06;16.20;99.90
11540;DHT22;5826;54.756;9.192;2023-07-31T02:29:32;16.20;99.90
11540;DHT22;5826;54.756;9.192;2023-07-31T02:31:57;16.20;99.90
11540;DHT22;5826;54.756;9.192;2023-07-31T02:34:22;16.20;99.90
11540;DHT22;5826;54.756;9.192;2023-07-31T02:36:48;16.20;99.90
11540;DHT22;5826;54.756;9.192;2023-07-31T02:39:13;16.20;99.90
11540;DHT22;5826;54.756;9.192;2023-07-31T02:41:39;16.20;99.90
11540;DHT22;5826;54.756;9.192;2023-07-31T02:44:04;16.20;99.90
11540;DHT22;5826;54.756;9.192;2023-07-31T02:46:30;16.20;99.90
11540;DHT22;5826;54.756;9.192;2023-07-31T02:48:55;16.30;99.90
11540;DHT22;5826;54.756;9.192;2023-07-31T02:51:21;16.30;99.90
11540;DHT22;5826;54.756;9.192;2023-07-31T02:53:47;16.30;99.90
11540;DHT22;5826;54.756;9.192;2023-07-31T02:56:13;16.30;99.90
11540;DHT22;5826;54.756;9.192;2023-07-31T02:58:38;16.30;99.90
11540;DHT22;5826;54.756;9.192;2023-07-31T03:01:04;16.30;99.90
11540;DHT22;5826;54.756;9.192;2023-07-31T03:03:29;16.30;99.90
11540;DHT22;5826;54.756;9.192;2023-07-31T03:05:55;16.30;99.90
11540;DHT22;5826;54.756;9.192;2023-07-31T03:08:20;16.30;99.90
11540;DHT22;5826;54.756;9.192;2023-07-31T03:10:46;16.30;99.90
11540;DHT22;5826;54.756;9.192;2023-07-31T03:13:11;16.30;99.90
11540;DHT22;5826;54.756;9.192;2023-07-31T03:15:37;16.30;99.90
11540;DHT22;5826;54.756;9.192;2023-07-31T03:18:02;16.20;99.90
11540;DHT22;5826;54.756;9.192;2023-07-31T03:20:28;16.30;99.90
11540;DHT22;5826;54.756;9.192;2023-07-31T03:22:53;16.20;99.90
11540;DHT22;5826;54.756;9.192;2023-07-31T03:25:19;16.20;99.90
11540;DHT22;5826;54.756;9.192;2023-07-31T03:27:44;16.20;99.90
11540;DHT22;5826;54.756;9.192;2023-07-31T03:30:10;16.20;99.90
11540;DHT22;5826;54.756;9.192;2023-07-31T03:32:36;16.20;99.90
11540;DHT22;5826;54.756;9.192;2023-07-31T03:35:01;16.10;99.90
11540;DHT22;5826;54.756;9.192;2023-07-31T03:37:27;16.10;99.90
11540;DHT22;5826;54.756;9.192;2023-07-31T03:39:52;16.10;99.90
11540;DHT22;5826;54.756;9.192;2023-07-31T03:42:18;16.10;99.90
11540;DHT22;5826;54.756;9.192;2023-07-31T03:44:43;16.10;99.90
11540;DHT22;5826;54.756;9.192;2023-07-31T03:47:09;16.10;99.90
11540;DHT22;5826;54.756;9.192;2023-07-31T03:49:34;16.10;99.90
11540;DHT22;5826;54.756;9.192;2023-07-31T03:52:00;16.10;99.90
11540;DHT22;5826;54.756;9.192;2023-07-31T03:54:25;16.00;99.90
11540;DHT22;5826;54.756;9.192;2023-07-31T03:56:50;16.10;99.90
11540;DHT22;5826;54.756;9.192;2023-07-31T03:59:16;16.10;99.90
11540;DHT22;5826;54.756;9.192;2023-07-31T04:01:41;16.10;99.90
11540;DHT22;5826;54.756;9.192;2023-07-31T04:04:07;16.10;99.90
11540;DHT22;5826;54.756;9.192;2023-07-31T04:06:32;16.10;99.90
11540;DHT22;5826;54.756;9.192;2023-07-31T04:08:58;16.10;99.90
11540;DHT22;5826;54.756;9.192;2023-07-31T04:11:23;16.20;99.90
11540;DHT22;5826;54.756;9.192;2023-07-31T04:13:49;16.20;99.90
11540;DHT22;5826;54.756;9.192;2023-07-31T04:16:14;16.20;99.90
11540;DHT22;5826;54.756;9.192;2023-07-31T04:18:40;16.20;99.90
11540;DHT22;5826;54.756;9.192;2023-07-31T04:21:05;16.20;99.90
11540;DHT22;5826;54.756;9.192;2023-07-31T04:23:31;16.20;99.90
11540;DHT22;5826;54.756;9.192;2023-07-31T04:25:56;16.30;99.90
11540;DHT22;5826;54.756;9.192;2023-07-31T04:28:22;16.30;99.90
11540;DHT22;5826;54.756;9.192;2023-07-31T04:30:47;16.30;99.90
11540;DHT22;5826;54.756;9.192;2023-07-31T04:33:13;16.30;99.90
11540;DHT22;5826;54.756;9.192;2023-07-31T04:35:38;16.30;99.90
11540;DHT22;5826;54.756;9.192;2023-07-31T04:38:04;16.30;99.90
11540;DHT22;5826;54.756;9.192;2023-07-31T04:40:30;16.30;99.90
11540;DHT22;5826;54.756;9.192;2023-07-31T04:42:55;16.30;99.90
11540;DHT22;5826;54.756;9.192;2023-07-31T04:45:21;16.40;99.90
11540;DHT22;5826;54.756;9.192;2023-07-31T04:47:46;16.40;99.90
11540;DHT22;5826;54.756;9.192;2023-07-31T04:50:12;16.40;99.90
11540;DHT22;5826;54.756;9.192;2023-07-31T04:52:37;16.50;99.90
11540;DHT22;5826;54.756;9.192;2023-07-31T04:55:03;16.60;99.90
11540;DHT22;5826;54.756;9.192;2023-07-31T04:57:28;16.60;99.90
11540;DHT22;5826;54.756;9.192;2023-07-31T04:59:54;16.60;99.90
11540;DHT22;5826;54.756;9.192;2023-07-31T05:02:19;16.70;99.90
11540;DHT22;5826;54.756;9.192;2023-07-31T05:04:45;16.70;99.90
11540;DHT22;5826;54.756;9.192;2023-07-31T05:07:10;16.70;99.90
11540;DHT22;5826;54.756;9.192;2023-07-31T05:09:36;16.70;99.90
11540;DHT22;5826;54.756;9.192;2023-07-31T05:12:03;16.70;99.90
11540;DHT22;5826;54.756;9.192;2023-07-31T05:14:29;16.70;99.90
11540;DHT22;5826;54.756;9.192;2023-07-31T05:16:55;16.70;99.90
11540;DHT22;5826;54.756;9.192;2023-07-31T05:19:20;16.70;99.90
11540;DHT22;5826;54.756;9.192;2023-07-31T05:21:45;16.70;99.90
11540;DHT22;5826;54.756;9.192;2023-07-31T05:24:11;16.70;99.90
11540;DHT22;5826;54.756;9.192;2023-07-31T05:26:37;16.80;99.90
11540;DHT22;5826;54.756;9.192;2023-07-31T05:29:03;16.80;99.90
11540;DHT22;5826;54.756;9.192;2023-07-31T05:31:29;16.90;99.90
11540;DHT22;5826;54.756;9.192;2023-07-31T05:33:54;16.90;99.90
11540;DHT22;5826;54.756;9.192;2023-07-31T05:36:20;17.00;99.90
11540;DHT22;5826;54.756;9.192;2023-07-31T05:38:45;17.10;99.90
11540;DHT22;5826;54.756;9.192;2023-07-31T05:41:12;17.20;99.90
11540;DHT22;5826;54.756;9.192;2023-07-31T05:43:37;17.20;99.90
11540;DHT22;5826;54.756;9.192;2023-07-31T05:46:03;17.20;99.90
11540;DHT22;5826;54.756;9.192;2023-07-31T05:48:28;17.20;99.90
11540;DHT22;5826;54.756;9.192;2023-07-31T05:50:54;17.20;99.90
11540;DHT22;5826;54.756;9.192;2023-07-31T05:53:19;17.20;99.90
11540;DHT22;5826;54.756;9.192;2023-07-31T05:55:45;17.20;99.90
11540;DHT22;5826;54.756;9.192;2023-07-31T05:58:10;17.30;99.90
11540;DHT22;5826;54.756;9.192;2023-07-31T06:00:36;17.30;99.90
11540;DHT22;5826;54.756;9.192;2023-07-31T06:03:01;17.40;99.90
11540;DHT22;5826;54.756;9.192;2023-07-31T06:05:27;17.40;99.90
11540;DHT22;5826;54.756;9.192;2023-07-31T06:07:55;17.40;99.90
11540;DHT22;5826;54.756;9.192;2023-07-31T06:10:20;17.40;99.90
11540;DHT22;5826;54.756;9.192;2023-07-31T06:12:46;17.50;99.90
11540;DHT22;5826;54.756;9.192;2023-07-31T06:15:11;17.60;99.90
11540;DHT22;5826;54.756;9.192;2023-07-31T06:17:37;17.70;99.90
11540;DHT22;5826;54.756;9.192;2023-07-31T06:20:03;17.80;99.90
11540;DHT22;5826;54.756;9.192;2023-07-31T06:22:30;17.80;99.90
11540;DHT22;5826;54.756;9.192;2023-07-31T06:24:56;17.80;99.90
11540;DHT22;5826;54.756;9.192;2023-07-31T06:27:21;17.80;99.90
11540;DHT22;5826;54.756;9.192;2023-07-31T06:29:47;17.70;99.90
11540;DHT22;5826;54.756;9.192;2023-07-31T06:32:13;17.80;99.90
11540;DHT22;5826;54.756;9.192;2023-07-31T06:34:39;17.80;99.90
11540;DHT22;5826;54.756;9.192;2023-07-31T06:37:04;17.90;99.90
11540;DHT22;5826;54.756;9.192;2023-07-31T06:39:30;17.90;99.90
11540;DHT22;5826;54.756;9.192;2023-07-31T06:41:55;18.00;99.90
11540;DHT22;5826;54.756;9.192;2023-07-31T06:44:21;18.10;99.90
11540;DHT22;5826;54.756;9.192;2023-07-31T06:46:46;18.30;99.90
11540;DHT22;5826;54.756;9.192;2023-07-31T06:49:12;18.50;99.90
11540;DHT22;5826;54.756;9.192;2023-07-31T06:51:37;18.70;99.90
11540;DHT22;5826;54.756;9.192;2023-07-31T06:54:03;18.90;99.90
11540;DHT22;5826;54.756;9.192;2023-07-31T06:56:29;18.90;99.90
11540;DHT22;5826;54.756;9.192;2023-07-31T06:58:55;18.90;99.90
11540;DHT22;5826;54.756;9.192;2023-07-31T07:01:21;18.90;99.90
11540;DHT22;5826;54.756;9.192;2023-07-31T07:03:46;18.80;99.90
11540;DHT22;5826;54.756;9.192;2023-07-31T07:06:12;18.70;99.90
11540;DHT22;5826;54.756;9.192;2023-07-31T07:08:37;18.70;99.90
11540;DHT22;5826;54.756;9.192;2023-07-31T07:11:03;18.60;99.90
11540;DHT22;5826;54.756;9.192;2023-07-31T07:13:29;18.50;99.90
11540;DHT22;5826;54.756;9.192;2023-07-31T07:15:54;18.40;99.90
11540;DHT22;5826;54.756;9.192;2023-07-31T07:18:20;18.30;99.90
11540;DHT22;5826;54.756;9.192;2023-07-31T07:20:49;18.20;99.90
11540;DHT22;5826;54.756;9.192;2023-07-31T07:23:14;18.10;99.90
11540;DHT22;5826;54.756;9.192;2023-07-31T07:25:40;18.00;99.90
11540;DHT22;5826;54.756;9.192;2023-07-31T07:28:05;17.90;99.90
11540;DHT22;5826;54.756;9.192;2023-07-31T07:30:31;17.90;99.90
11540;DHT22;5826;54.756;9.192;2023-07-31T07:32:56;18.00;99.90
11540;DHT22;5826;54.756;9.192;2023-07-31T07:35:22;18.00;99.90
11540;DHT22;5826;54.756;9.192;2023-07-31T07:37:50;18.10;99.90
11540;DHT22;5826;54.756;9.192;2023-07-31T07:40:16;18.20;99.90
11540;DHT22;5826;54.756;9.192;2023-07-31T07:42:42;18.30;99.90
11540;DHT22;5826;54.756;9.192;2023-07-31T07:45:08;18.40;99.90
11540;DHT22;5826;54.756;9.192;2023-07-31T07:47:33;18.40;99.90
11540;DHT22;5826;54.756;9.192;2023-07-31T07:49:59;18.50;99.90
11540;DHT22;5826;54.756;9.192;2023-07-31T07:52:24;18.60;99.90
11540;DHT22;5826;54.756;9.192;2023-07-31T07:54:50;18.60;99.90
11540;DHT22;5826;54.756;9.192;2023-07-31T07:57:16;18.70;99.90
11540;DHT22;5826;54.756;9.192;2023-07-31T07:59:41;18.80;99.90
11540;DHT22;5826;54.756;9.192;2023-07-31T08:02:07;18.90;99.90
11540;DHT22;5826;54.756;9.192;2023-07-31T08:04:33;18.90;99.90
11540;DHT22;5826;54.756;9.192;2023-07-31T08:06:58;18.90;99.90
11540;DHT22;5826;54.756;9.192;2023-07-31T08:09:23;18.90;99.90
11540;DHT22;5826;54.756;9.192;2023-07-31T08:11:49;18.90;99.90
11540;DHT22;5826;54.756;9.192;2023-07-31T08:14:14;19.00;99.90
11540;DHT22;5826;54.756;9.192;2023-07-31T08:16:40;18.90;99.90
11540;DHT22;5826;54.756;9.192;2023-07-31T08:19:05;18.90;99.90
11540;DHT22;5826;54.756;9.192;2023-07-31T08:21:31;18.90;99.90
11540;DHT22;5826;54.756;9.192;2023-07-31T08:23:57;18.90;99.90
11540;DHT22;5826;54.756;9.192;2023-07-31T08:26:23;18.90;99.90
11540;DHT22;5826;54.756;9.192;2023-07-31T08:28:48;18.90;99.90
11540;DHT22;5826;54.756;9.192;2023-07-31T08:31:14;18.90;99.90
11540;DHT22;5826;54.756;9.192;2023-07-31T08:33:39;19.00;99.90
11540;DHT22;5826;54.756;9.192;2023-07-31T08:36:05;19.00;99.90
11540;DHT22;5826;54.756;9.192;2023-07-31T08:38:31;19.00;99.90
11540;DHT22;5826;54.756;9.192;2023-07-31T08:40:57;19.00;99.90
11540;DHT22;5826;54.756;9.192;2023-07-31T08:43:26;18.90;99.90
11540;DHT22;5826;54.756;9.192;2023-07-31T08:45:52;18.90;99.90
11540;DHT22;5826;54.756;9.192;2023-07-31T08:48:19;18.90;99.90
11540;DHT22;5826;54.756;9.192;2023-07-31T08:50:45;18.90;99.90
11540;DHT22;5826;54.756;9.192;2023-07-31T08:53:10;18.80;99.90
11540;DHT22;5826;54.756;9.192;2023-07-31T08:55:37;18.90;99.90
11540;DHT22;5826;54.756;9.192;2023-07-31T08:58:04;18.80;99.90
11540;DHT22;5826;54.756;9.192;2023-07-31T09:00:32;18.80;99.90
11540;DHT22;5826;54.756;9.192;2023-07-31T09:03:00;18.80;99.90
11540;DHT22;5826;54.756;9.192;2023-07-31T09:05:29;18.80;99.90
11540;DHT22;5826;54.756;9.192;2023-07-31T09:07:56;18.80;99.90
11540;DHT22;5826;54.756;9.192;2023-07-31T09:10:23;18.80;99.90
11540;DHT22;5826;54.756;9.192;2023-07-31T09:12:50;18.90;99.90
11540;DHT22;5826;54.756;9.192;2023-07-31T09:15:16;19.00;99.90
11540;DHT22;5826;54.756;9.192;2023-07-31T09:17:42;19.00;99.90
11540;DHT22;5826;54.756;9.192;2023-07-31T09:20:15;19.10;99.90
11540;DHT22;5826;54.756;9.192;2023-07-31T09:22:42;19.10;99.90
11540;DHT22;5826;54.756;9.192;2023-07-31T09:25:24;19.20;99.90
11540;DHT22;5826;54.756;9.192;2023-07-31T09:27:53;19.20;99.90
11540;DHT22;5826;54.756;9.192;2023-07-31T09:30:19;19.20;99.90
11540;DHT22;5826;54.756;9.192;2023-07-31T09:32:47;19.20;99.90
11540;DHT22;5826;54.756;9.192;2023-07-31T09:37:49;19.10;99.90
11540;DHT22;5826;54.756;9.192;2023-07-31T09:40:25;19.10;99.90
11540;DHT22;5826;54.756;9.192;2023-07-31T09:42:51;19.20;99.90
11540;DHT22;5826;54.756;9.192;2023-07-31T09:45:18;19.20;99.90
11540;DHT22;5826;54.756;9.192;2023-07-31T09:47:47;19.20;99.90
11540;DHT22;5826;54.756;9.192;2023-07-31T09:50:16;19.10;99.90
11540;DHT22;5826;54.756;9.192;2023-07-31T09:52:42;18.80;99.90
11540;DHT22;5826;54.756;9.192;2023-07-31T09:55:09;18.60;99.90
11540;DHT22;5826;54.756;9.192;2023-07-31T09:57:40;18.40;99.90
11540;DHT22;5826;54.756;9.192;2023-07-31T10:00:07;18.20;99.90
11540;DHT22;5826;54.756;9.192;2023-07-31T10:02:35;18.10;99.90
11540;DHT22;5826;54.756;9.192;2023-07-31T10:05:02;18.10;99.90
11540;DHT22;5826;54.756;9.192;2023-07-31T10:07:30;18.10;99.90
11540;DHT22;5826;54.756;9.192;2023-07-31T10:09:58;18.10;99.90
11540;DHT22;5826;54.756;9.192;2023-07-31T10:12:26;18.10;99.90
11540;DHT22;5826;54.756;9.192;2023-07-31T10:14:54;18.10;99.90
11540;DHT22;5826;54.756;9.192;2023-07-31T10:17:21;18.10;99.90
11540;DHT22;5826;54.756;9.192;2023-07-31T10:19:51;18.10;99.90
11540;DHT22;5826;54.756;9.192;2023-07-31T10:22:19;18.10;99.90
11540;DHT22;5826;54.756;9.192;2023-07-31T10:24:46;18.10;99.90
11540;DHT22;5826;54.756;9.192;2023-07-31T10:27:12;18.10;99.90
11540;DHT22;5826;54.756;9.192;2023-07-31T10:29:43;18.10;99.90
11540;DHT22;5826;54.756;9.192;2023-07-31T10:32:09;18.10;99.90
11540;DHT22;5826;54.756;9.192;2023-07-31T10:34:37;18.10;99.90
11540;DHT22;5826;54.756;9.192;2023-07-31T10:39:58;18.10;99.90
11540;DHT22;5826;54.756;9.192;2023-07-31T10:42:32;18.00;99.90
11540;DHT22;5826;54.756;9.192;2023-07-31T10:45:03;18.10;99.90
11540;DHT22;5826;54.756;9.192;2023-07-31T10:47:29;18.10;99.90
11540;DHT22;5826;54.756;9.192;2023-07-31T10:50:21;18.10;99.90
11540;DHT22;5826;54.756;9.192;2023-07-31T10:52:48;18.10;99.90
11540;DHT22;5826;54.756;9.192;2023-07-31T10:57:50;18.20;99.90
11540;DHT22;5826;54.756;9.192;2023-07-31T11:03:03;18.40;99.90
11540;DHT22;5826;54.756;9.192;2023-07-31T11:05:51;18.50;99.90
11540;DHT22;5826;54.756;9.192;2023-07-31T11:13:49;18.60;99.90
11540;DHT22;5826;54.756;9.192;2023-07-31T11:16:15;18.70;99.90
11540;DHT22;5826;54.756;9.192;2023-07-31T11:18:42;18.60;99.90
11540;DHT22;5826;54.756;9.192;2023-07-31T11:21:16;18.70;99.90
11540;DHT22;5826;54.756;9.192;2023-07-31T11:23:46;18.70;99.90
11540;DHT22;5826;54.756;9.192;2023-07-31T11:26:12;18.80;99.90
11540;DHT22;5826;54.756;9.192;2023-07-31T11:28:38;18.90;99.90
11540;DHT22;5826;54.756;9.192;2023-07-31T11:31:04;19.00;99.90
11540;DHT22;5826;54.756;9.192;2023-07-31T11:33:30;19.10;99.90
11540;DHT22;5826;54.756;9.192;2023-07-31T11:35:55;19.20;99.90
11540;DHT22;5826;54.756;9.192;2023-07-31T11:38:22;19.20;99.90
11540;DHT22;5826;54.756;9.192;2023-07-31T11:40:52;19.10;99.90
11540;DHT22;5826;54.756;9.192;2023-07-31T11:43:19;19.10;99.90
11540;DHT22;5826;54.756;9.192;2023-07-31T11:45:47;19.20;99.90
11540;DHT22;5826;54.756;9.192;2023-07-31T11:50:45;19.30;99.90
11540;DHT22;5826;54.756;9.192;2023-07-31T11:53:12;19.40;99.90
11540;DHT22;5826;54.756;9.192;2023-07-31T11:55:38;19.40;99.90
11540;DHT22;5826;54.756;9.192;2023-07-31T11:58:04;19.50;99.90
11540;DHT22;5826;54.756;9.192;2023-07-31T12:00:30;19.50;99.90
11540;DHT22;5826;54.756;9.192;2023-07-31T12:02:56;19.60;99.90
11540;DHT22;5826;54.756;9.192;2023-07-31T12:05:22;19.50;99.90
11540;DHT22;5826;54.756;9.192;2023-07-31T12:07:53;19.50;99.90
11540;DHT22;5826;54.756;9.192;2023-07-31T12:10:32;19.50;99.90
11540;DHT22;5826;54.756;9.192;2023-07-31T12:13:04;19.60;99.90
11540;DHT22;5826;54.756;9.192;2023-07-31T12:15:36;19.70;99.90
11540;DHT22;5826;54.756;9.192;2023-07-31T12:18:10;19.60;99.90
11540;DHT22;5826;54.756;9.192;2023-07-31T12:20:43;19.60;99.90
11540;DHT22;5826;54.756;9.192;2023-07-31T12:23:17;19.60;99.90
11540;DHT22;5826;54.756;9.192;2023-07-31T12:25:43;19.50;99.90
11540;DHT22;5826;54.756;9.192;2023-07-31T12:28:09;19.60;99.90
11540;DHT22;5826;54.756;9.192;2023-07-31T12:30:39;19.60;99.90
11540;DHT22;5826;54.756;9.192;2023-07-31T12:33:13;19.50;99.90
11540;DHT22;5826;54.756;9.192;2023-07-31T12:35:44;19.40;99.90
11540;DHT22;5826;54.756;9.192;2023-07-31T12:38:11;19.30;99.90
11540;DHT22;5826;54.756;9.192;2023-07-31T12:40:38;19.10;99.90
11540;DHT22;5826;54.756;9.192;2023-07-31T12:43:04;19.00;99.90
11540;DHT22;5826;54.756;9.192;2023-07-31T12:45:31;18.90;99.90
11540;DHT22;5826;54.756;9.192;2023-07-31T12:47:57;18.90;99.90
11540;DHT22;5826;54.756;9.192;2023-07-31T12:50:23;18.90;99.90
11540;DHT22;5826;54.756;9.192;2023-07-31T12:52:49;18.90;99.90
11540;DHT22;5826;54.756;9.192;2023-07-31T12:55:14;18.90;99.90
11540;DHT22;5826;54.756;9.192;2023-07-31T12:57:40;19.00;99.90
11540;DHT22;5826;54.756;9.192;2023-07-31T13:00:07;19.10;99.90
11540;DHT22;5826;54.756;9.192;2023-07-31T13:02:33;19.10;99.90
11540;DHT22;5826;54.756;9.192;2023-07-31T13:04:59;19.20;99.90
11540;DHT22;5826;54.756;9.192;2023-07-31T13:07:24;19.20;99.90
11540;DHT22;5826;54.756;9.192;2023-07-31T13:09:51;19.10;99.90
11540;DHT22;5826;54.756;9.192;2023-07-31T13:12:17;19.20;99.90
11540;DHT22;5826;54.756;9.192;2023-07-31T13:14:43;19.40;99.90
11540;DHT22;5826;54.756;9.192;2023-07-31T13:17:09;19.50;99.90
11540;DHT22;5826;54.756;9.192;2023-07-31T13:19:34;19.60;99.90
11540;DHT22;5826;54.756;9.192;2023-07-31T13:22:00;19.70;99.90
11540;DHT22;5826;54.756;9.192;2023-07-31T13:24:25;20.00;99.90
11540;DHT22;5826;54.756;9.192;2023-07-31T13:26:51;20.30;99.90
11540;DHT22;5826;54.756;9.192;2023-07-31T13:29:16;20.40;99.90
11540;DHT22;5826;54.756;9.192;2023-07-31T13:31:42;20.40;99.90
11540;DHT22;5826;54.756;9.192;2023-07-31T13:34:07;20.40;99.90
11540;DHT22;5826;54.756;9.192;2023-07-31T13:36:33;20.30;99.90
11540;DHT22;5826;54.756;9.192;2023-07-31T13:38:59;20.30;99.90
11540;DHT22;5826;54.756;9.192;2023-07-31T13:41:25;20.30;99.90
11540;DHT22;5826;54.756;9.192;2023-07-31T13:43:50;20.40;99.90
11540;DHT22;5826;54.756;9.192;2023-07-31T13:46:16;20.40;99.90
11540;DHT22;5826;54.756;9.192;2023-07-31T13:48:41;20.40;99.90
11540;DHT22;5826;54.756;9.192;2023-07-31T13:51:07;20.40;99.90
11540;DHT22;5826;54.756;9.192;2023-07-31T13:53:32;20.30;99.90
11540;DHT22;5826;54.756;9.192;2023-07-31T13:55:58;20.30;99.90
11540;DHT22;5826;54.756;9.192;2023-07-31T13:58:23;20.30;99.90
11540;DHT22;5826;54.756;9.192;2023-07-31T14:00:49;20.20;99.90
11540;DHT22;5826;54.756;9.192;2023-07-31T14:03:14;20.30;99.90
11540;DHT22;5826;54.756;9.192;2023-07-31T14:05:40;20.30;99.90
11540;DHT22;5826;54.756;9.192;2023-07-31T14:08:05;20.30;99.90
11540;DHT22;5826;54.756;9.192;2023-07-31T14:10:31;20.30;99.90
11540;DHT22;5826;54.756;9.192;2023-07-31T14:12:56;20.20;99.90
11540;DHT22;5826;54.756;9.192;2023-07-31T14:15:22;20.20;99.90
11540;DHT22;5826;54.756;9.192;2023-07-31T14:17:47;20.30;99.90
11540;DHT22;5826;54.756;9.192;2023-07-31T14:20:13;20.40;99.90
11540;DHT22;5826;54.756;9.192;2023-07-31T14:22:38;20.30;99.90
11540;DHT22;5826;54.756;9.192;2023-07-31T14:25:04;20.20;99.90
11540;DHT22;5826;54.756;9.192;2023-07-31T14:27:30;20.10;99.90
11540;DHT22;5826;54.756;9.192;2023-07-31T14:29:55;20.20;99.90
11540;DHT22;5826;54.756;9.192;2023-07-31T14:32:22;20.20;99.90
11540;DHT22;5826;54.756;9.192;2023-07-31T14:34:48;20.20;99.90
11540;DHT22;5826;54.756;9.192;2023-07-31T14:37:14;20.20;99.90
11540;DHT22;5826;54.756;9.192;2023-07-31T14:39:40;20.10;99.90
11540;DHT22;5826;54.756;9.192;2023-07-31T14:42:05;20.10;99.90
11540;DHT22;5826;54.756;9.192;2023-07-31T14:44:31;19.90;99.90
11540;DHT22;5826;54.756;9.192;2023-07-31T14:46:56;19.80;99.90
11540;DHT22;5826;54.756;9.192;2023-07-31T14:49:22;19.70;99.90
11540;DHT22;5826;54.756;9.192;2023-07-31T14:51:47;19.60;99.90
11540;DHT22;5826;54.756;9.192;2023-07-31T14:54:13;19.50;99.90
11540;DHT22;5826;54.756;9.192;2023-07-31T14:56:38;19.40;99.90
11540;DHT22;5826;54.756;9.192;2023-07-31T14:59:03;19.30;99.90
11540;DHT22;5826;54.756;9.192;2023-07-31T15:01:29;19.20;99.90
11540;DHT22;5826;54.756;9.192;2023-07-31T15:03:54;19.10;99.90
11540;DHT22;5826;54.756;9.192;2023-07-31T15:06:20;18.90;99.90
11540;DHT22;5826;54.756;9.192;2023-07-31T15:08:45;18.80;99.90
11540;DHT22;5826;54.756;9.192;2023-07-31T15:11:11;18.80;99.90
11540;DHT22;5826;54.756;9.192;2023-07-31T15:13:36;18.70;99.90
11540;DHT22;5826;54.756;9.192;2023-07-31T15:16:02;18.60;99.90
11540;DHT22;5826;54.756;9.192;2023-07-31T15:18:27;18.60;99.90
11540;DHT22;5826;54.756;9.192;2023-07-31T15:20:54;18.60;99.90
11540;DHT22;5826;54.756;9.192;2023-07-31T15:23:19;18.70;99.90
11540;DHT22;5826;54.756;9.192;2023-07-31T15:25:45;18.80;99.90
11540;DHT22;5826;54.756;9.192;2023-07-31T15:28:10;18.80;99.90
11540;DHT22;5826;54.756;9.192;2023-07-31T15:30:36;18.90;99.90
11540;DHT22;5826;54.756;9.192;2023-07-31T15:33:03;18.90;99.90
11540;DHT22;5826;54.756;9.192;2023-07-31T15:35:28;19.00;99.90
11540;DHT22;5826;54.756;9.192;2023-07-31T15:37:54;19.00;99.90
11540;DHT22;5826;54.756;9.192;2023-07-31T15:40:19;19.00;99.90
11540;DHT22;5826;54.756;9.192;2023-07-31T15:42:45;18.90;99.90
11540;DHT22;5826;54.756;9.192;2023-07-31T15:45:10;18.90;99.90
11540;DHT22;5826;54.756;9.192;2023-07-31T15:47:36;18.90;99.90
11540;DHT22;5826;54.756;9.192;2023-07-31T15:50:02;18.90;99.90
11540;DHT22;5826;54.756;9.192;2023-07-31T15:52:27;18.90;99.90
11540;DHT22;5826;54.756;9.192;2023-07-31T15:54:53;18.90;99.90
11540;DHT22;5826;54.756;9.192;2023-07-31T15:57:18;18.90;99.90
11540;DHT22;5826;54.756;9.192;2023-07-31T15:59:44;18.80;99.90
11540;DHT22;5826;54.756;9.192;2023-07-31T16:02:09;18.70;99.90
11540;DHT22;5826;54.756;9.192;2023-07-31T16:04:39;18.70;99.90